Time;durP1;ratioP1;P1;durP2;ratioP2;P2;SDS_P1;SDS_P2;PMS_P1;PMS_P2;Temp;Humidity;BMP_temperature;BMP_pressure;BME280_temperature;BME280_humidity;BME280_pressure;Samples;Min_cycle;Max_cycle;Signal;HPM_P1;HPM_P2
2023/04/10 00:00:23;;;;;;;;;;;8.10;45.60;;;;;;5051077;28;19960;-57
2023/04/10 00:02:49;;;;;;;;;;;8.10;45.70;;;;;;5051233;28;19917;-57
2023/04/10 00:05:15;;;;;;;;;;;8.10;45.70;;;;;;5044758;28;19913;-59
2023/04/10 00:07:40;;;;;;;;;;;8.10;45.70;;;;;;5031152;28;19913;-57
2023/04/10 00:10:06;;;;;;;;;;;8.10;45.80;;;;;;5030790;28;19917;-57
2023/04/10 00:12:32;;;;;;;;;;;8.10;46.10;;;;;;5031305;28;19913;-58
2023/04/10 00:14:58;;;;;;;;;;;8.00;46.20;;;;;;5031175;28;19920;-58
2023/04/10 00:17:23;;;;;;;;;;;8.00;46.10;;;;;;5031008;28;19913;-57
2023/04/10 00:19:49;;;;;;;;;;;8.00;46.10;;;;;;5030788;28;19913;-57
2023/04/10 00:22:14;;;;;;;;;;;8.00;46.10;;;;;;5030775;28;19914;-57
2023/04/10 00:24:40;;;;;;;;;;;8.00;46.10;;;;;;5032121;28;19913;-58
2023/04/10 00:27:05;;;;;;;;;;;8.00;46.20;;;;;;5034925;28;20024;-57
2023/04/10 00:29:31;;;;;;;;;;;7.90;46.20;;;;;;5034542;28;20011;-57
2023/04/10 00:31:56;;;;;;;;;;;7.90;46.40;;;;;;5034457;28;20349;-58
2023/04/10 00:34:22;;;;;;;;;;;7.90;46.40;;;;;;5034417;28;20411;-59
2023/04/10 00:36:48;;;;;;;;;;;7.90;46.40;;;;;;5054209;28;19909;-58
2023/04/10 00:39:13;;;;;;;;;;;7.80;46.30;;;;;;5054398;28;19962;-57
2023/04/10 00:41:39;;;;;;;;;;;7.80;46.30;;;;;;5049180;28;20385;-59
2023/04/10 00:44:04;;;;;;;;;;;7.80;46.50;;;;;;5034868;28;19913;-57
2023/04/10 00:46:30;;;;;;;;;;;7.80;46.60;;;;;;5034316;28;19917;-57
2023/04/10 00:48:56;;;;;;;;;;;7.70;46.60;;;;;;5034601;28;19940;-58
2023/04/10 00:51:21;;;;;;;;;;;7.70;46.70;;;;;;5034172;28;19921;-58
2023/04/10 00:53:50;;;;;;;;;;;7.70;46.70;;;;;;5034510;28;19913;-58
2023/04/10 00:56:16;;;;;;;;;;;7.70;46.70;;;;;;5034212;28;19913;-57
2023/04/10 00:58:41;;;;;;;;;;;7.60;46.70;;;;;;5034032;28;19971;-57
2023/04/10 01:01:07;;;;;;;;;;;7.70;46.80;;;;;;5033944;28;19921;-57
2023/04/10 01:03:33;;;;;;;;;;;7.60;46.80;;;;;;5034184;28;19913;-57
2023/04/10 01:06:15;;;;;;;;;;;7.60;46.80;;;;;;5033818;28;19979;-57
2023/04/10 01:08:54;;;;;;;;;;;7.60;46.80;;;;;;5034324;28;20333;-57
2023/04/10 01:11:38;;;;;;;;;;;7.60;47.00;;;;;;5033765;28;19925;-57
2023/04/10 01:14:06;;;;;;;;;;;7.60;47.20;;;;;;5034114;28;19913;-57
2023/04/10 01:17:01;;;;;;;;;;;7.60;47.20;;;;;;5033656;28;19927;-59
2023/04/10 01:19:26;;;;;;;;;;;7.60;47.40;;;;;;5028901;28;19924;-57
2023/04/10 01:21:53;;;;;;;;;;;7.70;47.60;;;;;;5033667;28;19909;-60
2023/04/10 01:24:57;;;;;;;;;;;7.70;47.50;;;;;;5033667;28;20308;-57
2023/04/10 01:27:35;;;;;;;;;;;7.70;47.60;;;;;;5011479;28;20365;-57
2023/04/10 01:30:01;;;;;;;;;;;7.70;48.10;;;;;;5011419;28;20305;-57
2023/04/10 01:32:29;;;;;;;;;;;7.70;48.40;;;;;;5023829;28;20009;-57
2023/04/10 01:34:55;;;;;;;;;;;7.70;48.50;;;;;;5036888;28;19913;-61
2023/04/10 01:37:29;;;;;;;;;;;7.80;48.60;;;;;;5053308;28;19913;-58
2023/04/10 01:39:58;;;;;;;;;;;7.80;48.80;;;;;;5053054;28;19952;-58
2023/04/10 01:42:25;;;;;;;;;;;7.80;48.80;;;;;;5041660;28;19920;-57
2023/04/10 01:44:52;;;;;;;;;;;7.80;48.70;;;;;;5033230;28;19913;-57
2023/04/10 01:47:17;;;;;;;;;;;7.80;48.80;;;;;;5033350;28;20011;-60
2023/04/10 01:49:44;;;;;;;;;;;7.90;48.70;;;;;;5032793;28;20500;-57
2023/04/10 01:52:10;;;;;;;;;;;7.90;48.70;;;;;;5032901;28;20280;-57
2023/04/10 01:54:36;;;;;;;;;;;7.90;48.70;;;;;;5032791;28;20025;-64
2023/04/10 01:57:03;;;;;;;;;;;7.90;48.70;;;;;;5032596;28;20384;-57
2023/04/10 01:59:29;;;;;;;;;;;8.00;48.70;;;;;;5032690;28;20388;-58
2023/04/10 02:01:55;;;;;;;;;;;8.00;48.60;;;;;;5033047;28;19909;-57
2023/04/10 02:04:21;;;;;;;;;;;8.00;48.70;;;;;;5032784;28;20380;-57
2023/04/10 02:06:52;;;;;;;;;;;8.00;48.80;;;;;;5032636;28;19913;-58
2023/04/10 02:09:21;;;;;;;;;;;8.00;48.90;;;;;;5032340;28;19918;-57
2023/04/10 02:12:07;;;;;;;;;;;8.00;48.90;;;;;;5032538;28;19936;-57
2023/04/10 02:14:35;;;;;;;;;;;8.00;48.90;;;;;;5032124;28;20440;-64
2023/04/10 02:17:01;;;;;;;;;;;8.00;48.90;;;;;;5032570;28;19913;-57
2023/04/10 02:19:27;;;;;;;;;;;8.00;49.00;;;;;;5032361;28;19913;-57
2023/04/10 02:21:53;;;;;;;;;;;8.00;49.10;;;;;;5032024;28;19909;-57
2023/04/10 02:24:19;;;;;;;;;;;8.00;49.10;;;;;;5032392;28;19963;-57
2023/04/10 02:26:48;;;;;;;;;;;8.00;49.20;;;;;;5032344;28;20004;-66
2023/04/10 02:29:14;;;;;;;;;;;8.10;49.20;;;;;;5032673;28;19917;-58
2023/04/10 02:31:40;;;;;;;;;;;8.10;49.20;;;;;;5032531;28;19936;-58
2023/04/10 02:34:06;;;;;;;;;;;8.10;49.30;;;;;;5031838;28;19913;-58
2023/04/10 02:36:31;;;;;;;;;;;8.10;49.30;;;;;;5032292;28;19917;-57
2023/04/10 02:38:57;;;;;;;;;;;8.10;49.50;;;;;;5031988;28;19999;-60
2023/04/10 02:41:23;;;;;;;;;;;8.10;49.60;;;;;;5031888;28;20972;-58
2023/04/10 02:43:48;;;;;;;;;;;8.20;49.60;;;;;;5031674;28;19921;-58
2023/04/10 02:46:14;;;;;;;;;;;8.10;49.60;;;;;;5031827;28;20373;-58
2023/04/10 02:48:39;;;;;;;;;;;8.20;49.50;;;;;;5031426;28;19921;-58
2023/04/10 02:51:05;;;;;;;;;;;8.10;49.50;;;;;;5032009;28;19917;-57
2023/04/10 02:53:32;;;;;;;;;;;8.20;49.50;;;;;;5030758;28;19960;-57
2023/04/10 02:55:57;;;;;;;;;;;8.20;49.40;;;;;;5031673;28;20379;-58
2023/04/10 02:58:22;;;;;;;;;;;8.20;49.30;;;;;;5031929;28;19913;-58
2023/04/10 03:00:48;;;;;;;;;;;8.20;49.30;;;;;;5030263;28;19935;-57
2023/04/10 03:03:14;;;;;;;;;;;8.20;49.40;;;;;;5031767;28;19917;-58
2023/04/10 03:05:39;;;;;;;;;;;8.20;49.40;;;;;;5031412;28;19913;-58
2023/04/10 03:08:05;;;;;;;;;;;8.20;49.40;;;;;;5031996;28;19913;-57
2023/04/10 03:10:30;;;;;;;;;;;8.20;49.40;;;;;;5031314;28;20439;-57
2023/04/10 03:12:56;;;;;;;;;;;8.30;49.40;;;;;;5031724;28;20333;-57
2023/04/10 03:15:21;;;;;;;;;;;8.30;49.30;;;;;;5031692;28;19928;-57
2023/04/10 03:17:46;;;;;;;;;;;8.20;49.40;;;;;;5031700;28;19910;-59
2023/04/10 03:20:12;;;;;;;;;;;8.30;49.50;;;;;;5031602;28;19937;-57
2023/04/10 03:22:38;;;;;;;;;;;8.30;49.50;;;;;;5031618;28;19910;-58
2023/04/10 03:25:04;;;;;;;;;;;8.30;49.50;;;;;;5031675;28;19917;-57
2023/04/10 03:27:31;;;;;;;;;;;8.40;49.50;;;;;;5031668;28;19909;-58
2023/04/10 03:29:56;;;;;;;;;;;8.40;49.50;;;;;;5031297;28;19922;-58
2023/04/10 03:32:21;;;;;;;;;;;8.40;49.50;;;;;;5021802;28;19914;-57
2023/04/10 03:34:47;;;;;;;;;;;8.40;49.50;;;;;;5029568;28;19919;-60
2023/04/10 03:37:12;;;;;;;;;;;8.40;49.50;;;;;;5049549;28;20288;-58
2023/04/10 03:39:38;;;;;;;;;;;8.40;49.40;;;;;;5031087;28;20012;-57
2023/04/10 03:42:03;;;;;;;;;;;8.40;49.50;;;;;;5031214;28;19909;-58
2023/04/10 03:44:29;;;;;;;;;;;8.40;49.50;;;;;;5031103;28;19913;-58
2023/04/10 03:46:54;;;;;;;;;;;8.40;49.50;;;;;;5031168;28;19909;-57
2023/04/10 03:49:20;;;;;;;;;;;8.40;49.60;;;;;;5031038;28;19913;-58
2023/04/10 03:51:45;;;;;;;;;;;8.40;49.60;;;;;;5031657;28;19952;-58
2023/04/10 03:54:10;;;;;;;;;;;8.40;49.60;;;;;;5031558;28;19921;-58
2023/04/10 03:56:36;;;;;;;;;;;8.40;49.80;;;;;;5031072;28;20368;-57
2023/04/10 03:59:01;;;;;;;;;;;8.40;49.90;;;;;;5033441;28;19924;-57
2023/04/10 04:01:27;;;;;;;;;;;8.50;49.90;;;;;;5035193;28;19928;-57
2023/04/10 04:03:52;;;;;;;;;;;8.50;49.80;;;;;;5035514;28;19913;-60
2023/04/10 04:06:17;;;;;;;;;;;8.50;49.70;;;;;;5035458;28;19917;-58
2023/04/10 04:08:43;;;;;;;;;;;8.50;49.70;;;;;;5035144;28;20284;-58
2023/04/10 04:11:08;;;;;;;;;;;8.40;49.70;;;;;;5035022;28;19917;-57
2023/04/10 04:13:34;;;;;;;;;;;8.40;49.70;;;;;;5035180;28;20262;-58
2023/04/10 04:15:59;;;;;;;;;;;8.40;49.70;;;;;;5034924;28;20385;-57
2023/04/10 04:18:25;;;;;;;;;;;8.40;49.70;;;;;;5035216;28;20011;-58
2023/04/10 04:20:50;;;;;;;;;;;8.40;49.80;;;;;;5035003;28;20107;-58
2023/04/10 04:23:16;;;;;;;;;;;8.40;49.90;;;;;;5035135;28;19940;-58
2023/04/10 04:25:42;;;;;;;;;;;8.40;50.10;;;;;;5034546;28;19975;-57
2023/04/10 04:28:08;;;;;;;;;;;8.50;50.20;;;;;;5035006;28;19921;-57
2023/04/10 04:30:34;;;;;;;;;;;8.50;50.10;;;;;;5034771;28;19924;-57
2023/04/10 04:32:59;;;;;;;;;;;8.50;50.30;;;;;;5034940;28;19913;-57
2023/04/10 04:35:25;;;;;;;;;;;8.50;50.20;;;;;;5043294;28;20273;-58
2023/04/10 04:37:50;;;;;;;;;;;8.50;50.30;;;;;;5054836;28;20423;-58
2023/04/10 04:40:15;;;;;;;;;;;8.50;50.60;;;;;;5054680;28;20390;-58
2023/04/10 04:42:41;;;;;;;;;;;8.50;50.70;;;;;;5054465;28;20011;-58
2023/04/10 04:45:07;;;;;;;;;;;8.60;50.90;;;;;;5054492;28;19913;-58
2023/04/10 04:47:32;;;;;;;;;;;8.60;51.10;;;;;;5054672;28;20349;-57
2023/04/10 04:49:57;;;;;;;;;;;8.60;51.20;;;;;;5054815;28;20027;-58
2023/04/10 04:52:24;;;;;;;;;;;8.70;51.50;;;;;;5054537;28;20431;-57
2023/04/10 04:54:49;;;;;;;;;;;8.70;51.80;;;;;;5054326;28;19916;-57
2023/04/10 04:57:15;;;;;;;;;;;8.90;52.10;;;;;;5054355;28;19913;-58
2023/04/10 04:59:40;;;;;;;;;;;9.00;52.20;;;;;;5054543;28;20372;-57
2023/04/10 05:02:06;;;;;;;;;;;9.10;52.70;;;;;;5054463;28;20280;-58
2023/04/10 05:04:31;;;;;;;;;;;9.40;53.20;;;;;;5054100;28;20372;-58
2023/04/10 05:06:57;;;;;;;;;;;9.60;53.40;;;;;;5054233;28;20012;-58
2023/04/10 05:09:22;;;;;;;;;;;9.90;53.40;;;;;;5054034;28;20334;-57
2023/04/10 05:11:49;;;;;;;;;;;10.10;53.30;;;;;;5053273;28;19912;-57
2023/04/10 05:14:14;;;;;;;;;;;10.40;53.30;;;;;;5054341;28;19913;-58
2023/04/10 05:16:40;;;;;;;;;;;10.70;53.40;;;;;;5053883;28;20363;-57
2023/04/10 05:19:06;;;;;;;;;;;10.90;53.20;;;;;;5053824;28;20007;-57
2023/04/10 05:21:31;;;;;;;;;;;11.10;52.80;;;;;;5054095;28;19918;-57
2023/04/10 05:23:57;;;;;;;;;;;11.20;52.50;;;;;;5052754;28;19916;-58
2023/04/10 05:26:23;;;;;;;;;;;11.40;52.20;;;;;;5048142;28;19925;-57
2023/04/10 05:28:48;;;;;;;;;;;11.50;52.30;;;;;;5034101;28;20004;-57
2023/04/10 05:31:14;;;;;;;;;;;11.80;52.50;;;;;;5033741;28;19917;-58
2023/04/10 05:33:39;;;;;;;;;;;12.10;53.20;;;;;;5034069;28;19998;-57
2023/04/10 05:36:05;;;;;;;;;;;12.50;53.60;;;;;;5047281;28;20395;-57
2023/04/10 05:38:30;;;;;;;;;;;12.80;53.60;;;;;;5053963;28;19913;-58
2023/04/10 05:40:56;;;;;;;;;;;13.20;53.10;;;;;;5053735;28;19924;-57
2023/04/10 05:43:21;;;;;;;;;;;13.40;52.50;;;;;;5053870;28;20265;-57
2023/04/10 05:45:47;;;;;;;;;;;13.70;52.00;;;;;;5053490;28;19919;-57
2023/04/10 05:48:12;;;;;;;;;;;13.90;51.60;;;;;;5053607;28;20364;-57
2023/04/10 05:50:37;;;;;;;;;;;14.10;51.40;;;;;;5053145;28;19916;-57
2023/04/10 05:53:03;;;;;;;;;;;14.40;51.30;;;;;;5053620;28;19913;-57
2023/04/10 05:55:31;;;;;;;;;;;14.70;51.60;;;;;;5053279;28;19913;-57
2023/04/10 05:57:57;;;;;;;;;;;15.00;51.00;;;;;;5053200;28;19924;-61
2023/04/10 06:00:22;;;;;;;;;;;15.30;50.90;;;;;;5053176;28;19913;-58
2023/04/10 06:02:48;;;;;;;;;;;15.80;51.00;;;;;;5053071;28;19955;-57
2023/04/10 06:05:13;;;;;;;;;;;16.20;50.90;;;;;;5053146;28;19919;-60
2023/04/10 06:07:39;;;;;;;;;;;16.70;50.30;;;;;;5053063;28;19912;-60
2023/04/10 06:10:05;;;;;;;;;;;17.00;49.70;;;;;;5053186;28;19917;-60
2023/04/10 06:12:30;;;;;;;;;;;17.40;49.20;;;;;;5053050;28;19913;-56
2023/04/10 06:14:56;;;;;;;;;;;17.80;48.70;;;;;;5053007;28;19912;-57
2023/04/10 06:17:24;;;;;;;;;;;18.30;48.60;;;;;;5052890;28;19913;-59
2023/04/10 06:19:49;;;;;;;;;;;18.80;48.30;;;;;;5052563;28;19916;-57
2023/04/10 06:22:15;;;;;;;;;;;19.30;47.70;;;;;;5051589;28;19919;-57
2023/04/10 06:24:41;;;;;;;;;;;19.80;46.20;;;;;;5052592;28;20364;-58
2023/04/10 06:27:06;;;;;;;;;;;20.20;44.90;;;;;;5041169;28;19909;-59
2023/04/10 06:29:32;;;;;;;;;;;20.40;43.60;;;;;;5032531;28;20296;-56
2023/04/10 06:31:57;;;;;;;;;;;20.50;42.90;;;;;;5032441;28;19909;-58
2023/04/10 06:34:23;;;;;;;;;;;20.50;42.50;;;;;;5032563;28;19919;-57
2023/04/10 06:36:48;;;;;;;;;;;20.60;41.90;;;;;;5052340;28;19912;-57
2023/04/10 06:39:14;;;;;;;;;;;20.60;41.20;;;;;;5052336;28;19916;-58
2023/04/10 06:41:39;;;;;;;;;;;20.50;40.70;;;;;;5052499;28;19913;-58
2023/04/10 06:44:05;;;;;;;;;;;20.50;40.30;;;;;;5052435;28;19919;-57
2023/04/10 06:46:30;;;;;;;;;;;20.40;39.90;;;;;;5052196;28;19920;-58
2023/04/10 06:48:56;;;;;;;;;;;20.50;39.50;;;;;;5052388;28;19927;-57
2023/04/10 06:51:21;;;;;;;;;;;20.50;39.70;;;;;;5052144;28;19928;-57
2023/04/10 06:53:46;;;;;;;;;;;20.70;39.90;;;;;;5050889;28;20274;-58
2023/04/10 06:56:12;;;;;;;;;;;20.90;39.60;;;;;;5052365;28;19916;-58
2023/04/10 06:58:37;;;;;;;;;;;21.20;38.90;;;;;;5052308;28;19913;-58
2023/04/10 07:01:03;;;;;;;;;;;21.50;38.50;;;;;;5051733;28;19917;-58
2023/04/10 07:03:29;;;;;;;;;;;21.70;37.50;;;;;;5052363;28;19913;-58
2023/04/10 07:05:55;;;;;;;;;;;21.90;36.90;;;;;;5051827;28;20004;-58
2023/04/10 07:08:21;;;;;;;;;;;22.10;36.50;;;;;;5052250;28;19913;-57
2023/04/10 07:10:46;;;;;;;;;;;22.30;35.90;;;;;;5052041;28;20024;-58
2023/04/10 07:13:12;;;;;;;;;;;22.60;35.40;;;;;;5052180;28;20323;-58
2023/04/10 07:15:37;;;;;;;;;;;22.80;35.30;;;;;;5051903;28;20015;-57
2023/04/10 07:18:03;;;;;;;;;;;23.20;34.50;;;;;;5052093;28;20360;-58
2023/04/10 07:20:28;;;;;;;;;;;23.50;34.00;;;;;;5051861;28;19913;-58
2023/04/10 07:22:53;;;;;;;;;;;23.80;33.90;;;;;;5051686;28;20055;-57
2023/04/10 07:25:19;;;;;;;;;;;24.20;33.50;;;;;;5051913;28;19912;-59
2023/04/10 07:27:44;;;;;;;;;;;24.60;33.20;;;;;;5034990;28;19913;-59
2023/04/10 07:30:10;;;;;;;;;;;25.00;32.30;;;;;;5031667;28;20487;-58
2023/04/10 07:32:38;;;;;;;;;;;25.40;32.30;;;;;;5031856;28;19917;-59
2023/04/10 07:35:05;;;;;;;;;;;25.80;32.10;;;;;;5036866;28;20314;-59
2023/04/10 07:37:30;;;;;;;;;;;26.40;32.00;;;;;;5051850;28;20276;-58
2023/04/10 07:39:55;;;;;;;;;;;27.00;32.00;;;;;;5051177;28;19925;-58
2023/04/10 07:42:22;;;;;;;;;;;27.40;28.30;;;;;;5051786;28;19967;-59
2023/04/10 07:44:47;;;;;;;;;;;27.70;25.90;;;;;;5051649;28;20446;-58
2023/04/10 07:47:13;;;;;;;;;;;27.90;24.60;;;;;;5051327;28;19917;-58
2023/04/10 07:49:38;;;;;;;;;;;28.00;24.10;;;;;;5051373;28;19913;-59
2023/04/10 07:52:03;;;;;;;;;;;28.20;23.60;;;;;;5051288;28;19909;-58
2023/04/10 07:54:33;;;;;;;;;;;28.40;23.00;;;;;;5051401;28;19913;-58
2023/04/10 07:56:58;;;;;;;;;;;28.50;21.90;;;;;;5051269;28;20280;-58
2023/04/10 07:59:24;;;;;;;;;;;28.60;22.50;;;;;;5051557;28;19913;-59
2023/04/10 08:01:49;;;;;;;;;;;28.70;21.80;;;;;;5051747;28;19909;-58
2023/04/10 08:04:15;;;;;;;;;;;29.00;22.00;;;;;;5051941;28;20391;-59
2023/04/10 08:06:40;;;;;;;;;;;29.20;21.60;;;;;;5051298;28;19920;-58
2023/04/10 08:09:06;;;;;;;;;;;29.30;21.30;;;;;;5051606;28;19920;-58
2023/04/10 08:11:32;;;;;;;;;;;29.30;21.00;;;;;;5051254;28;19932;-59
2023/04/10 08:14:01;;;;;;;;;;;29.30;20.40;;;;;;5051655;28;19951;-58
2023/04/10 08:16:28;;;;;;;;;;;29.30;20.30;;;;;;5051581;28;19956;-58
2023/04/10 08:18:55;;;;;;;;;;;29.30;20.10;;;;;;5051651;28;19948;-58
2023/04/10 08:21:21;;;;;;;;;;;29.20;19.90;;;;;;5051410;28;19923;-58
2023/04/10 08:23:48;;;;;;;;;;;29.00;19.90;;;;;;5051478;28;20007;-58
2023/04/10 08:26:14;;;;;;;;;;;28.80;20.00;;;;;;5046504;28;19924;-58
2023/04/10 08:28:40;;;;;;;;;;;28.80;20.00;;;;;;5031597;28;19909;-58
2023/04/10 08:31:06;;;;;;;;;;;29.00;20.20;;;;;;5030972;28;19944;-58
2023/04/10 08:33:31;;;;;;;;;;;29.20;20.30;;;;;;5031743;28;19913;-58
2023/04/10 08:35:56;;;;;;;;;;;29.40;20.00;;;;;;5042290;28;19944;-58
2023/04/10 08:38:23;;;;;;;;;;;29.50;19.80;;;;;;5051128;28;20326;-57
2023/04/10 08:40:49;;;;;;;;;;;29.60;19.80;;;;;;5051206;28;19912;-58
2023/04/10 08:43:15;;;;;;;;;;;29.60;19.70;;;;;;5051186;28;20012;-57
2023/04/10 08:45:40;;;;;;;;;;;29.80;19.70;;;;;;5052245;28;20354;-58
2023/04/10 08:48:06;;;;;;;;;;;29.80;19.40;;;;;;5054731;28;19966;-59
2023/04/10 08:50:34;;;;;;;;;;;29.70;18.80;;;;;;5054784;28;19921;-59
2023/04/10 08:53:04;;;;;;;;;;;29.50;19.20;;;;;;5054861;28;19944;-57
2023/04/10 08:55:30;;;;;;;;;;;29.70;19.70;;;;;;5054544;28;19912;-59
2023/04/10 08:57:55;;;;;;;;;;;29.90;19.30;;;;;;5054591;28;20454;-60
2023/04/10 09:00:21;;;;;;;;;;;29.80;19.10;;;;;;5054201;28;19920;-64
2023/04/10 09:02:46;;;;;;;;;;;29.90;18.90;;;;;;5041029;28;20091;-59
2023/04/10 09:05:12;;;;;;;;;;;29.60;18.70;;;;;;5033774;28;19927;-59
2023/04/10 09:07:38;;;;;;;;;;;29.20;19.00;;;;;;5019809;28;19928;-59
2023/04/10 09:10:04;;;;;;;;;;;29.00;19.40;;;;;;5034211;28;19928;-59
2023/04/10 09:12:41;;;;;;;;;;;28.70;19.40;;;;;;5030593;28;19951;-59
2023/04/10 09:15:07;;;;;;;;;;;28.50;19.70;;;;;;5031888;28;19919;-58
2023/04/10 09:17:32;;;;;;;;;;;28.30;19.90;;;;;;5031110;28;19913;-58
2023/04/10 09:19:58;;;;;;;;;;;28.10;19.80;;;;;;5032274;28;20007;-58
2023/04/10 09:22:33;;;;;;;;;;;27.80;20.00;;;;;;5033572;28;19967;-58
2023/04/10 09:24:59;;;;;;;;;;;27.80;20.30;;;;;;5032953;28;20288;-59
2023/04/10 09:27:32;;;;;;;;;;;27.90;20.00;;;;;;5030652;28;19920;-58
2023/04/10 09:29:58;;;;;;;;;;;28.00;20.10;;;;;;5033309;28;19917;-58
2023/04/10 09:32:40;;;;;;;;;;;28.00;19.80;;;;;;5028822;28;19918;-59
2023/04/10 09:35:06;;;;;;;;;;;28.20;20.00;;;;;;5031932;28;19921;-58
2023/04/10 09:37:31;;;;;;;;;;;28.30;20.10;;;;;;5024443;28;19913;-58
2023/04/10 09:39:57;;;;;;;;;;;28.50;20.30;;;;;;5026681;28;19928;-58
2023/04/10 09:42:38;;;;;;;;;;;28.80;19.90;;;;;;5026255;28;19914;-59
2023/04/10 09:45:04;;;;;;;;;;;29.00;19.90;;;;;;5027018;28;19917;-58
2023/04/10 09:47:30;;;;;;;;;;;29.10;19.30;;;;;;5021460;28;20008;-58
2023/04/10 09:49:59;;;;;;;;;;;29.30;19.20;;;;;;5020786;28;19924;-59
2023/04/10 09:52:29;;;;;;;;;;;29.30;18.90;;;;;;5015923;28;19914;-58
2023/04/10 09:54:55;;;;;;;;;;;29.30;18.80;;;;;;5021023;28;19913;-58
2023/04/10 09:57:21;;;;;;;;;;;29.30;18.80;;;;;;5020280;28;19917;-59
2023/04/10 09:59:51;;;;;;;;;;;29.50;18.90;;;;;;5022061;28;19914;-59
2023/04/10 10:02:18;;;;;;;;;;;29.50;18.80;;;;;;5015358;28;20265;-59
2023/04/10 10:04:44;;;;;;;;;;;29.70;18.80;;;;;;5022248;28;19921;-59
2023/04/10 10:07:10;;;;;;;;;;;30.00;19.10;;;;;;5020750;28;20377;-59
2023/04/10 10:09:36;;;;;;;;;;;30.10;18.60;;;;;;5022082;28;19971;-59
2023/04/10 10:12:02;;;;;;;;;;;30.30;18.70;;;;;;5019393;28;20332;-61
2023/04/10 10:14:28;;;;;;;;;;;30.50;18.60;;;;;;5022903;28;19917;-59
2023/04/10 10:16:56;;;;;;;;;;;30.80;18.60;;;;;;5015208;28;20387;-59
2023/04/10 10:19:37;;;;;;;;;;;30.90;18.40;;;;;;5021282;28;19926;-58
2023/04/10 10:22:03;;;;;;;;;;;30.90;17.60;;;;;;5015301;28;19917;-58
2023/04/10 10:24:30;;;;;;;;;;;30.70;17.70;;;;;;5026803;28;19918;-58
2023/04/10 10:26:57;;;;;;;;;;;30.70;17.50;;;;;;5030328;28;19913;-61
2023/04/10 10:29:23;;;;;;;;;;;30.50;17.50;;;;;;5025917;28;20418;-59
2023/04/10 10:31:49;;;;;;;;;;;30.30;17.50;;;;;;5030953;28;19921;-58
2023/04/10 10:34:15;;;;;;;;;;;29.60;17.40;;;;;;5022396;28;19914;-58
2023/04/10 10:36:41;;;;;;;;;;;29.20;17.70;;;;;;5045617;28;20339;-58
2023/04/10 10:39:13;;;;;;;;;;;28.70;17.90;;;;;;5023012;28;19927;-59
2023/04/10 10:41:58;;;;;;;;;;;28.20;18.20;;;;;;5013319;28;19913;-58
2023/04/10 10:44:32;;;;;;;;;;;27.90;18.50;;;;;;5021348;28;19922;-58
2023/04/10 10:47:16;;;;;;;;;;;27.70;18.60;;;;;;5013359;28;19916;-58
2023/04/10 10:49:54;;;;;;;;;;;27.80;18.90;;;;;;5021982;28;19932;-61
2023/04/10 10:52:37;;;;;;;;;;;27.80;18.80;;;;;;5026685;28;19914;-59
2023/04/10 10:55:21;;;;;;;;;;;27.80;18.60;;;;;;5024792;28;19913;-58
2023/04/10 10:57:47;;;;;;;;;;;27.90;18.70;;;;;;5022573;28;19921;-57
2023/04/10 11:00:13;;;;;;;;;;;27.90;18.50;;;;;;5019935;28;19930;-57
2023/04/10 11:02:39;;;;;;;;;;;28.00;18.70;;;;;;5015987;28;19917;-60
2023/04/10 11:05:05;;;;;;;;;;;28.50;18.60;;;;;;5023969;28;20380;-59
2023/04/10 11:08:09;;;;;;;;;;;28.50;18.40;;;;;;5027257;28;19913;-57
2023/04/10 11:10:53;;;;;;;;;;;28.30;18.40;;;;;;5009844;28;19917;-58
2023/04/10 11:13:18;;;;;;;;;;;28.40;18.50;;;;;;5023001;28;19917;-58
2023/04/10 11:15:44;;;;;;;;;;;28.70;18.50;;;;;;5013262;28;19997;-58
2023/04/10 11:18:10;;;;;;;;;;;28.90;18.30;;;;;;5019542;28;19913;-58
2023/04/10 11:20:56;;;;;;;;;;;29.10;18.20;;;;;;5015534;28;19921;-59
2023/04/10 11:23:25;;;;;;;;;;;28.90;17.80;;;;;;5021081;28;19961;-58
2023/04/10 11:25:51;;;;;;;;;;;28.80;18.00;;;;;;5025788;28;19963;-58
2023/04/10 11:28:36;;;;;;;;;;;28.70;18.00;;;;;;5025486;28;19920;-59
2023/04/10 11:31:18;;;;;;;;;;;28.70;18.00;;;;;;5012268;28;19936;-59
2023/04/10 11:33:45;;;;;;;;;;;28.30;17.90;;;;;;5023019;28;19917;-59
2023/04/10 11:36:12;;;;;;;;;;;28.00;18.20;;;;;;5041272;28;20372;-59
2023/04/10 11:38:38;;;;;;;;;;;27.80;18.30;;;;;;5027028;28;20285;-60
2023/04/10 11:41:05;;;;;;;;;;;27.70;18.50;;;;;;5026182;28;19918;-60
2023/04/10 11:43:32;;;;;;;;;;;27.30;18.60;;;;;;5025632;28;19917;-58
2023/04/10 11:46:06;;;;;;;;;;;27.10;18.70;;;;;;5025983;28;19917;-60
2023/04/10 11:48:32;;;;;;;;;;;27.20;19.00;;;;;;5025450;28;20193;-60
2023/04/10 11:51:00;;;;;;;;;;;27.20;19.30;;;;;;5026663;28;19929;-57
2023/04/10 11:53:26;;;;;;;;;;;27.30;19.00;;;;;;5025246;28;19955;-58
2023/04/10 11:55:52;;;;;;;;;;;27.10;19.00;;;;;;5026123;28;20415;-58
2023/04/10 11:58:27;;;;;;;;;;;27.00;19.20;;;;;;5019726;28;19917;-58
2023/04/10 12:00:56;;;;;;;;;;;27.10;19.40;;;;;;5030120;28;19917;-58
2023/04/10 12:03:35;;;;;;;;;;;27.20;19.40;;;;;;5026484;28;19924;-59
2023/04/10 12:06:02;;;;;;;;;;;27.30;19.50;;;;;;5031008;28;19964;-58
2023/04/10 12:08:34;;;;;;;;;;;27.40;19.40;;;;;;5030471;28;19921;-58
2023/04/10 12:11:00;;;;;;;;;;;27.70;19.50;;;;;;5011925;28;19924;-58
2023/04/10 12:13:26;;;;;;;;;;;27.70;19.40;;;;;;5023525;28;20012;-58
2023/04/10 12:15:52;;;;;;;;;;;27.70;19.40;;;;;;5013211;28;19924;-58
2023/04/10 12:18:18;;;;;;;;;;;27.80;19.50;;;;;;5019330;28;19917;-58
2023/04/10 12:20:43;;;;;;;;;;;27.80;19.30;;;;;;5031130;28;20012;-59
2023/04/10 12:23:09;;;;;;;;;;;27.70;19.40;;;;;;5027564;28;19935;-58
2023/04/10 12:25:35;;;;;;;;;;;27.50;19.40;;;;;;5019321;28;19958;-59
2023/04/10 12:28:00;;;;;;;;;;;27.70;19.50;;;;;;5022894;28;19956;-58
2023/04/10 12:30:26;;;;;;;;;;;27.60;19.40;;;;;;5021150;28;19926;-58
2023/04/10 12:32:55;;;;;;;;;;;27.50;19.50;;;;;;5019456;28;19917;-58
2023/04/10 12:35:36;;;;;;;;;;;27.60;19.60;;;;;;5035122;28;19943;-58
2023/04/10 12:38:01;;;;;;;;;;;27.70;19.60;;;;;;5036416;28;19917;-58
2023/04/10 12:40:27;;;;;;;;;;;27.80;19.80;;;;;;5014943;28;19957;-59
2023/04/10 12:42:52;;;;;;;;;;;27.90;19.60;;;;;;5027424;28;19956;-60
2023/04/10 12:45:18;;;;;;;;;;;27.90;19.80;;;;;;5029112;28;20285;-61
2023/04/10 12:47:45;;;;;;;;;;;27.90;19.80;;;;;;5029851;28;20000;-61
2023/04/10 12:50:15;;;;;;;;;;;28.00;19.70;;;;;;5019841;28;20015;-60
2023/04/10 12:52:42;;;;;;;;;;;27.80;19.60;;;;;;5027181;28;20352;-60
2023/04/10 12:55:08;;;;;;;;;;;27.90;19.50;;;;;;5026141;28;20323;-61
2023/04/10 12:57:33;;;;;;;;;;;27.90;19.40;;;;;;5029201;28;19913;-61
2023/04/10 12:59:59;;;;;;;;;;;28.10;19.40;;;;;;5025427;28;19920;-60
2023/04/10 13:02:26;;;;;;;;;;;28.30;19.40;;;;;;5027768;28;19921;-61
2023/04/10 13:04:51;;;;;;;;;;;28.60;19.40;;;;;;5024012;28;19917;-60
2023/04/10 13:07:17;;;;;;;;;;;28.60;19.10;;;;;;5026869;28;19913;-60
2023/04/10 13:09:42;;;;;;;;;;;28.50;19.00;;;;;;5027352;28;19945;-61
2023/04/10 13:12:08;;;;;;;;;;;28.20;18.90;;;;;;5028457;28;19918;-62
2023/04/10 13:14:33;;;;;;;;;;;28.00;19.00;;;;;;5024219;28;19917;-60
2023/04/10 13:16:58;;;;;;;;;;;28.00;19.10;;;;;;5031576;28;20016;-60
2023/04/10 13:19:24;;;;;;;;;;;28.10;18.90;;;;;;5021852;28;19918;-61
2023/04/10 13:21:50;;;;;;;;;;;28.40;18.60;;;;;;5022779;28;19953;-61
2023/04/10 13:24:16;;;;;;;;;;;28.60;18.30;;;;;;5025297;28;19945;-60
2023/04/10 13:26:41;;;;;;;;;;;28.70;18.30;;;;;;5022697;28;20074;-61
2023/04/10 13:29:07;;;;;;;;;;;28.70;17.80;;;;;;5023653;28;19957;-61
2023/04/10 13:31:32;;;;;;;;;;;28.30;17.10;;;;;;5018814;28;19921;-60
2023/04/10 13:33:58;;;;;;;;;;;28.00;17.00;;;;;;5018670;28;20297;-60
2023/04/10 13:36:23;;;;;;;;;;;27.80;17.30;;;;;;5034042;28;19917;-60
2023/04/10 13:38:48;;;;;;;;;;;27.90;17.40;;;;;;5023677;28;19917;-60
2023/04/10 13:41:14;;;;;;;;;;;27.90;17.30;;;;;;5032879;28;19921;-60
2023/04/10 13:43:39;;;;;;;;;;;27.80;17.40;;;;;;5025584;28;19920;-60
2023/04/10 13:46:05;;;;;;;;;;;27.60;17.50;;;;;;5026777;28;20302;-61
2023/04/10 13:48:30;;;;;;;;;;;27.30;17.80;;;;;;5022617;28;19913;-61
2023/04/10 13:50:56;;;;;;;;;;;26.90;18.10;;;;;;5015843;28;20079;-60
2023/04/10 13:53:21;;;;;;;;;;;26.70;18.30;;;;;;5025240;28;20392;-60
2023/04/10 13:55:48;;;;;;;;;;;26.70;18.50;;;;;;5017101;28;19913;-61
2023/04/10 13:58:14;;;;;;;;;;;26.60;18.70;;;;;;5023240;28;19920;-61
2023/04/10 14:00:42;;;;;;;;;;;26.50;18.90;;;;;;5018051;28;19917;-59
2023/04/10 14:03:09;;;;;;;;;;;26.50;19.00;;;;;;5018375;28;19913;-60
2023/04/10 14:05:34;;;;;;;;;;;26.50;19.20;;;;;;5019228;28;20401;-60
2023/04/10 14:08:00;;;;;;;;;;;26.60;19.40;;;;;;5020698;28;19914;-60
2023/04/10 14:10:25;;;;;;;;;;;26.60;19.40;;;;;;5020017;28;20355;-60
2023/04/10 14:12:51;;;;;;;;;;;26.50;19.30;;;;;;5016412;28;19952;-60
2023/04/10 14:15:16;;;;;;;;;;;26.40;19.20;;;;;;5021187;28;19913;-61
2023/04/10 14:17:42;;;;;;;;;;;26.30;19.30;;;;;;5024066;28;20305;-60
2023/04/10 14:20:10;;;;;;;;;;;26.30;19.50;;;;;;5022433;28;19914;-61